createdAt,value
2023-06-17T00:04:04.775Z,3.38
2023-06-17T00:09:08.598Z,3.55
2023-06-17T00:14:10.842Z,2.85
2023-06-17T00:19:17.374Z,3.50
2023-06-17T00:24:22.972Z,2.67
2023-06-17T00:29:25.217Z,3.03
2023-06-17T00:34:27.448Z,2.97
2023-06-17T00:39:29.748Z,3.05
2023-06-17T00:44:32.084Z,2.35
2023-06-17T00:49:37.644Z,2.60
2023-06-17T00:54:41.989Z,2.90
2023-06-17T00:59:45.976Z,2.58
2023-06-17T01:04:48.508Z,3.03
2023-06-17T01:10:06.647Z,3.00
2023-06-17T01:15:12.151Z,2.75
2023-06-17T01:20:15.306Z,3.17
2023-06-17T01:25:17.623Z,3.25
2023-06-17T01:30:21.777Z,3.10
2023-06-17T01:35:25.759Z,3.22
2023-06-17T01:40:31.631Z,3.78
2023-06-17T01:45:34.755Z,4.00
2023-06-17T01:50:37.437Z,3.55
2023-06-17T01:55:39.786Z,3.97
2023-06-17T02:00:42.092Z,4.28
2023-06-17T02:05:44.693Z,3.63
2023-06-17T02:10:46.969Z,3.45
2023-06-17T02:15:49.248Z,3.67
2023-06-17T02:20:51.807Z,3.67
2023-06-17T02:25:54.313Z,4.70
2023-06-17T02:30:56.621Z,4.60
2023-06-17T02:35:59.415Z,5.78
2023-06-17T02:41:01.702Z,5.50
2023-06-17T02:46:04.016Z,6.00
2023-06-17T02:51:06.305Z,5.63
2023-06-17T02:56:08.642Z,4.65
2023-06-17T03:01:12.753Z,4.25
2023-06-17T03:06:17.253Z,4.38
2023-06-17T03:11:19.591Z,4.65
2023-06-17T03:16:22.474Z,4.97
2023-06-17T03:21:24.713Z,4.60
2023-06-17T03:26:27.185Z,5.32
2023-06-17T03:31:29.752Z,5.15
2023-06-17T03:36:32.004Z,5.05
2023-06-17T03:41:34.223Z,4.72
2023-06-17T03:46:36.481Z,5.25
2023-06-17T03:51:41.202Z,5.03
2023-06-17T03:56:43.542Z,5.03
2023-06-17T04:01:45.845Z,5.40
2023-06-17T04:06:48.055Z,5.32
2023-06-17T04:11:50.265Z,5.38
2023-06-17T04:16:52.541Z,5.07
2023-06-17T04:21:54.864Z,5.97
2023-06-17T04:26:57.155Z,4.88
2023-06-17T04:31:59.412Z,5.47
2023-06-17T04:37:02.095Z,5.47
2023-06-17T04:42:04.607Z,5.05
2023-06-17T04:47:11.851Z,5.80
2023-06-17T04:52:20.934Z,6.03
2023-06-17T04:57:23.262Z,5.55
2023-06-17T05:02:25.594Z,5.53
2023-06-17T05:07:28.010Z,6.07
2023-06-17T05:12:30.539Z,5.90
2023-06-17T05:17:32.861Z,5.55
2023-06-17T05:22:35.202Z,5.63
2023-06-17T05:27:39.107Z,5.80
2023-06-17T05:32:41.435Z,6.00
2023-06-17T05:37:43.714Z,5.82
2023-06-17T05:42:45.947Z,5.65
2023-06-17T05:47:48.239Z,5.80
2023-06-17T05:52:50.454Z,6.10
2023-06-17T05:57:53.625Z,6.60
2023-06-17T06:02:55.958Z,7.28
2023-06-17T06:07:58.241Z,6.45
2023-06-17T06:13:01.036Z,6.15
2023-06-17T06:18:03.685Z,5.97
2023-06-17T06:23:06.010Z,5.53
2023-06-17T06:28:08.278Z,4.90
2023-06-17T06:33:10.635Z,5.03
2023-06-17T06:38:12.869Z,5.30
2023-06-17T06:43:15.144Z,4.20
2023-06-17T06:48:17.358Z,3.28
2023-06-17T06:53:20.912Z,2.55
2023-06-17T06:58:23.168Z,2.72
2023-06-17T07:03:25.588Z,3.20
2023-06-17T07:08:27.869Z,3.10
2023-06-17T07:13:30.808Z,2.95
2023-06-17T07:18:33.482Z,2.80
2023-06-17T07:23:35.743Z,2.63
2023-06-17T07:28:38.029Z,3.10
2023-06-17T07:33:41.796Z,2.40
2023-06-17T07:38:44.084Z,3.13
2023-06-17T07:43:46.294Z,3.30
2023-06-17T07:48:48.492Z,3.63
2023-06-17T07:53:50.716Z,3.58
2023-06-17T07:58:52.974Z,2.88
2023-06-17T08:03:55.447Z,3.13
2023-06-17T08:08:57.869Z,2.47
2023-06-17T08:14:00.075Z,2.70
2023-06-17T08:19:03.415Z,2.38
2023-06-17T08:24:26.921Z,2.78
2023-06-17T08:29:29.326Z,2.17
2023-06-17T08:34:33.880Z,2.75
2023-06-17T08:39:41.170Z,2.00
2023-06-17T08:44:45.709Z,1.73
2023-06-17T08:49:48.422Z,1.88
2023-06-17T08:54:51.045Z,1.80
2023-06-17T08:59:53.238Z,1.77
2023-06-17T09:04:56.221Z,1.98
2023-06-17T09:10:12.917Z,2.22
2023-06-17T09:15:19.293Z,2.05
2023-06-17T09:20:22.174Z,2.00
2023-06-17T09:25:24.967Z,1.67
2023-06-17T09:30:27.264Z,2.00
2023-06-17T09:35:29.557Z,2.03
2023-06-17T09:40:35.281Z,1.90
2023-06-17T09:45:38.173Z,1.60
2023-06-17T09:50:40.885Z,1.92
2023-06-17T09:55:43.531Z,1.40
2023-06-17T10:00:48.168Z,1.42
2023-06-17T10:05:56.814Z,1.27
2023-06-17T10:11:01.715Z,1.90
2023-06-17T10:16:11.072Z,2.13
2023-06-17T10:21:14.916Z,6.65
2023-06-17T10:26:17.188Z,5.70
2023-06-17T10:31:28.637Z,2.33
2023-06-17T10:36:31.676Z,2.08
2023-06-17T10:41:39.768Z,1.60
2023-06-17T10:46:42.048Z,1.38
2023-06-17T10:51:57.891Z,1.70
2023-06-17T10:57:05.964Z,2.00
2023-06-17T11:02:09.388Z,1.85
2023-06-17T11:07:15.141Z,2.10
2023-06-17T11:12:18.044Z,2.10
2023-06-17T11:17:20.320Z,2.05
2023-06-17T11:22:23.906Z,1.90
2023-06-17T11:27:26.284Z,2.03
2023-06-17T11:32:28.832Z,2.53
2023-06-17T11:37:31.560Z,2.10
2023-06-17T11:42:34.359Z,2.35
2023-06-17T11:47:37.579Z,3.15
2023-06-17T11:52:39.938Z,2.70
2023-06-17T11:57:44.368Z,2.78
2023-06-17T12:02:46.802Z,2.70
2023-06-17T12:07:49.160Z,2.58
2023-06-17T12:12:53.059Z,2.80
2023-06-17T12:17:58.464Z,3.00
2023-06-17T12:23:00.736Z,2.63
2023-06-17T12:28:03.660Z,2.30
2023-06-17T12:33:06.019Z,2.63
2023-06-17T12:38:09.648Z,2.42
2023-06-17T12:43:12.827Z,2.25
2023-06-17T12:48:15.315Z,2.40
2023-06-17T12:53:17.656Z,2.45
2023-06-17T12:58:19.859Z,2.20
2023-06-17T13:03:22.972Z,2.17
2023-06-17T13:08:25.204Z,2.20
2023-06-17T13:13:28.645Z,2.58
2023-06-17T13:18:30.940Z,2.30
2023-06-17T13:23:33.248Z,2.13
2023-06-17T13:28:36.473Z,1.90
2023-06-17T13:33:39.304Z,2.10
2023-06-17T13:38:41.793Z,2.00
2023-06-17T13:43:44.129Z,1.98
2023-06-17T13:48:46.397Z,2.47
2023-06-17T13:53:48.614Z,2.22
2023-06-17T13:58:50.894Z,2.15
2023-06-17T14:03:53.540Z,2.25
2023-06-17T14:08:55.795Z,1.80
2023-06-17T14:13:58.167Z,2.60
2023-06-17T14:19:01.055Z,2.80
2023-06-17T14:24:07.428Z,2.85
2023-06-17T14:29:11.091Z,2.50
2023-06-17T14:34:13.312Z,3.20
2023-06-17T14:39:15.859Z,3.08
2023-06-17T14:44:18.472Z,3.10
2023-06-17T14:49:20.737Z,2.95
2023-06-17T14:54:22.994Z,3.00
2023-06-17T14:59:25.327Z,2.72
2023-06-17T15:04:28.139Z,2.97
2023-06-17T15:09:33.594Z,3.38
2023-06-17T15:14:38.618Z,3.30
2023-06-17T15:19:41.182Z,2.33
2023-06-17T15:24:43.605Z,2.28
2023-06-17T15:29:45.950Z,2.33
2023-06-17T15:34:48.344Z,1.40
2023-06-17T15:39:50.734Z,1.88
2023-06-17T15:44:52.958Z,3.40
2023-06-17T15:49:55.288Z,1.52
2023-06-17T15:54:58.139Z,1.58
2023-06-17T16:00:00.444Z,2.33
2023-06-17T16:05:03.211Z,1.52
2023-06-17T16:10:05.748Z,2.05
2023-06-17T16:15:08.625Z,1.92
2023-06-17T16:20:11.665Z,2.30
2023-06-17T16:25:13.984Z,2.20
2023-06-17T16:30:16.418Z,2.13
2023-06-17T16:35:18.732Z,2.58
2023-06-17T16:40:21.481Z,2.55
2023-06-17T16:45:24.284Z,3.00
2023-06-17T16:50:26.910Z,3.30
2023-06-17T17:00:55.786Z,3.20
2023-06-17T17:06:02.399Z,3.33
2023-06-17T17:11:05.975Z,3.90
2023-06-17T17:16:08.390Z,3.40
2023-06-17T17:21:10.907Z,3.75
2023-06-17T17:26:13.891Z,3.80
2023-06-17T17:31:16.324Z,3.42
2023-06-17T17:36:19.339Z,2.80
2023-06-17T17:41:22.175Z,3.97
2023-06-17T17:46:24.551Z,4.22
2023-06-17T17:51:27.078Z,4.15
2023-06-17T17:56:29.761Z,3.80
2023-06-17T18:01:32.754Z,3.30
2023-06-17T18:06:34.986Z,3.28
2023-06-17T18:11:37.666Z,2.50
2023-06-17T18:16:40.138Z,2.83
2023-06-17T18:21:42.336Z,2.85
2023-06-17T18:26:44.637Z,2.72
2023-06-17T18:31:48.587Z,3.10
2023-06-17T18:36:51.267Z,3.20
2023-06-17T18:41:53.495Z,3.25
2023-06-17T18:46:56.183Z,3.35
2023-06-17T18:51:58.700Z,2.78
2023-06-17T18:57:01.580Z,3.40
2023-06-17T19:02:04.850Z,3.75
2023-06-17T19:07:07.172Z,3.40
2023-06-17T19:12:09.944Z,2.72
2023-06-17T19:17:12.251Z,3.10
2023-06-17T19:22:14.468Z,6.97
2023-06-17T19:27:16.736Z,2.70
2023-06-17T19:32:19.067Z,2.97
2023-06-17T19:37:22.723Z,2.65
2023-06-17T19:42:25.045Z,2.65
2023-06-17T19:47:28.596Z,2.80
2023-06-17T19:52:31.016Z,2.47
2023-06-17T19:57:33.349Z,2.20
2023-06-17T20:02:35.662Z,2.42
2023-06-17T20:07:37.956Z,2.30
2023-06-17T20:12:40.257Z,2.45
2023-06-17T20:17:42.547Z,2.30
2023-06-17T20:22:44.844Z,2.60
2023-06-17T20:27:47.300Z,2.42
2023-06-17T20:32:49.729Z,2.60
2023-06-17T20:37:52.697Z,2.50
2023-06-17T20:42:55.122Z,2.08
2023-06-17T20:47:57.727Z,2.30
2023-06-17T20:53:00.038Z,2.63
2023-06-17T20:58:02.468Z,3.08
2023-06-17T21:03:04.916Z,2.92
2023-06-17T21:08:07.407Z,2.78
2023-06-17T21:13:09.627Z,2.88
2023-06-17T21:18:11.795Z,2.60
2023-06-17T21:23:14.027Z,2.80
2023-06-17T21:28:16.253Z,3.17
2023-06-17T21:33:18.724Z,2.92
2023-06-17T21:38:21.673Z,3.00
2023-06-17T21:43:24.068Z,4.57
2023-06-17T21:48:26.410Z,4.43
2023-06-17T21:53:28.727Z,5.05
2023-06-17T21:58:31.114Z,5.38
2023-06-17T22:03:33.430Z,5.38
2023-06-17T22:08:43.143Z,5.90
2023-06-17T22:13:46.744Z,5.30
2023-06-17T22:18:48.977Z,4.90
2023-06-17T22:23:51.304Z,4.43
2023-06-17T22:28:53.565Z,4.63
2023-06-17T22:33:55.786Z,4.22
2023-06-17T22:38:58.007Z,4.38
2023-06-17T22:44:00.783Z,4.35
2023-06-17T22:49:03.017Z,5.05
2023-06-17T22:54:05.329Z,4.10
2023-06-17T22:59:07.549Z,3.80
2023-06-17T23:04:09.919Z,3.72
2023-06-17T23:09:12.347Z,3.97
2023-06-17T23:14:14.635Z,4.10
2023-06-17T23:19:16.955Z,4.57
2023-06-17T23:24:19.889Z,4.00
2023-06-17T23:29:23.892Z,4.15
2023-06-17T23:34:26.094Z,4.10
2023-06-17T23:39:28.606Z,3.97
2023-06-17T23:44:30.806Z,4.88
2023-06-17T23:49:42.304Z,4.25
2023-06-17T23:54:44.685Z,4.22
2023-06-17T23:59:47.737Z,4.50
